Time;durP1;ratioP1;P1;durP2;ratioP2;P2;SDS_P1;SDS_P2;PMS_P1;PMS_P2;Temp;Humidity;BMP_temperature;BMP_pressure;BME280_temperature;BME280_humidity;BME280_pressure;Samples;Min_cycle;Max_cycle;Signal;HPM_P1;HPM_P2
2022/10/30 00:01:08;;;;;;;25.50;23.10;;;;;;;11.14;99.82;98381.09;103581;1313;24333;-80
2022/10/30 00:03:40;;;;;;;24.00;21.60;;;;;;;11.17;99.73;98383.33;103196;1289;22483;-82
2022/10/30 00:06:08;;;;;;;22.20;19.50;;;;;;;11.16;99.72;98390.83;103574;1306;22556;-81
2022/10/30 00:08:36;;;;;;;20.70;18.60;;;;;;;11.13;99.60;98386.28;103534;1300;24308;-84
2022/10/30 00:11:11;;;;;;;22.00;19.90;;;;;;;11.09;99.48;98389.09;103399;1310;23124;-82
2022/10/30 00:13:43;;;;;;;19.90;18.00;;;;;;;11.06;99.36;98390.69;103709;1288;22843;-82
2022/10/30 00:16:11;;;;;;;20.60;16.90;;;;;;;11.06;99.56;98391.22;103656;1309;22456;-86
2022/10/30 00:18:40;;;;;;;19.00;17.20;;;;;;;11.04;99.56;98390.95;103628;1284;22476;-81
2022/10/30 00:21:12;;;;;;;20.60;18.40;;;;;;;11.04;99.84;98391.54;103593;1309;24243;-84
2022/10/30 00:23:46;;;;;;;25.40;22.70;;;;;;;11.03;99.83;98391.70;103855;1308;22614;-81
2022/10/30 00:26:14;;;;;;;20.30;18.40;;;;;;;11.02;99.82;98399.05;103359;1306;22601;-84
2022/10/30 00:28:43;;;;;;;18.70;16.80;;;;;;;10.97;100.00;98410.77;103222;1310;24282;-85
2022/10/30 00:31:10;;;;;;;18.50;16.70;;;;;;;10.95;100.00;98418.13;103552;1306;23873;-84
2022/10/30 00:33:38;;;;;;;18.60;16.50;;;;;;;10.92;100.00;98417.61;103583;1310;22499;-84
2022/10/30 00:36:06;;;;;;;19.30;17.30;;;;;;;10.92;100.00;98422.20;103619;1310;22464;-87
2022/10/30 00:38:34;;;;;;;18.40;16.50;;;;;;;10.91;100.00;98417.03;103589;1310;22603;-86
2022/10/30 00:41:02;;;;;;;19.00;16.50;;;;;;;10.91;100.00;98406.45;103565;1310;24471;-84
2022/10/30 00:43:36;;;;;;;20.40;18.60;;;;;;;10.91;100.00;98402.14;103227;1310;24231;-83
2022/10/30 00:46:24;;;;;;;22.30;20.20;;;;;;;10.92;100.00;98387.85;103572;1310;22489;-84
2022/10/30 00:49:02;;;;;;;26.20;22.20;;;;;;;10.95;100.00;98385.23;103299;1310;22487;-87
2022/10/30 00:51:32;;;;;;;18.40;16.40;;;;;;;10.94;99.97;98382.36;103922;1294;23179;-85
2022/10/30 00:54:03;;;;;;;19.30;17.00;;;;;;;10.87;99.90;98382.30;103294;1309;22583;-84
2022/10/30 00:56:32;;;;;;;19.60;17.80;;;;;;;10.79;100.00;98379.42;103386;1291;22491;-86
2022/10/30 00:59:06;;;;;;;20.50;18.30;;;;;;;10.77;100.00;98382.65;103253;1310;22488;-85
2022/10/30 01:01:37;;;;;;;20.60;18.60;;;;;;;10.76;100.00;98388.38;103342;1313;22466;-83
2022/10/30 01:04:06;;;;;;;19.80;17.40;;;;;;;10.76;100.00;98390.36;103410;1310;22537;-86
2022/10/30 01:06:39;;;;;;;22.20;19.70;;;;;;;10.76;100.00;98396.23;103454;1313;22594;-84
2022/10/30 01:09:08;;;;;;;18.90;17.00;;;;;;;10.77;100.00;98391.21;103743;1294;25405;-84
2022/10/30 01:11:36;;;;;;;18.50;16.70;;;;;;;10.77;100.00;98381.23;103510;1312;22471;-85
2022/10/30 01:14:07;;;;;;;19.40;17.50;;;;;;;10.78;100.00;98375.89;103525;1310;22471;-84
2022/10/30 01:17:07;;;;;;;19.70;17.80;;;;;;;10.81;100.00;98373.48;103270;1310;25623;-86
2022/10/30 01:19:55;;;;;;;19.70;17.60;;;;;;;10.84;100.00;98369.77;103475;1310;25228;-85
2022/10/30 01:23:05;;;;;;;23.60;16.20;;;;;;;10.82;100.00;98368.45;103306;1310;22495;-86
2022/10/30 01:25:45;;;;;;;20.40;18.40;;;;;;;10.77;100.00;98371.42;103362;1310;22527;-85
2022/10/30 01:28:26;;;;;;;21.10;19.10;;;;;;;10.73;100.00;98380.54;103548;1308;24241;-86
2022/10/30 01:31:20;;;;;;;21.30;19.40;;;;;;;10.65;100.00;98377.06;103481;1295;25232;-87
2022/10/30 01:34:07;;;;;;;26.00;23.60;;;;;;;10.63;100.00;98368.57;106509;1314;22513;-86
2022/10/30 01:37:06;;;;;;;24.70;22.40;;;;;;;10.65;100.00;98366.23;103398;1310;22529;-85
2022/10/30 01:39:38;;;;;;;23.30;21.00;;;;;;;10.66;100.00;98375.98;103620;1307;22502;-86
2022/10/30 01:42:43;;;;;;;23.80;21.20;;;;;;;10.64;100.00;98372.43;103663;1310;24358;-84
2022/10/30 01:45:28;;;;;;;30.10;27.60;;;;;;;10.62;100.00;98374.02;103664;1301;23923;-88
2022/10/30 01:48:08;;;;;;;22.50;20.20;;;;;;;10.59;100.00;98374.17;103567;1297;22466;-87
2022/10/30 01:51:21;;;;;;;24.90;22.70;;;;;;;10.54;100.00;98375.84;103622;1305;24864;-86
2022/10/30 01:54:14;;;;;;;25.00;22.70;;;;;;;10.46;99.98;98373.14;103260;1313;24185;-87
2022/10/30 01:56:51;;;;;;;25.30;23.10;;;;;;;10.32;100.00;98363.05;102989;1314;22539;-88
2022/10/30 01:59:36;;;;;;;26.80;24.10;;;;;;;10.29;100.00;98366.29;103173;1313;23094;-84
2022/10/30 02:02:06;;;;;;;23.90;20.30;;;;;;;10.30;100.00;98370.11;103528;1291;25320;-86
2022/10/30 02:04:35;;;;;;;25.50;23.10;;;;;;;10.32;100.00;98374.55;103446;1310;22748;-84
2022/10/30 02:07:05;;;;;;;26.00;23.30;;;;;;;10.39;100.00;98373.09;103459;1307;22936;-86
2022/10/30 02:09:38;;;;;;;27.90;25.00;;;;;;;10.45;100.00;98378.26;103362;1313;22528;-84
2022/10/30 02:12:08;;;;;;;29.60;26.60;;;;;;;10.50;100.00;98379.08;103410;1313;22466;-85
2022/10/30 02:14:42;;;;;;;30.10;27.20;;;;;;;10.53;100.00;98368.85;103487;1311;25212;-84
2022/10/30 02:17:11;;;;;;;30.80;27.80;;;;;;;10.56;100.00;98375.98;103497;1313;22492;-84
2022/10/30 02:19:39;;;;;;;30.90;27.80;;;;;;;10.57;100.00;98376.23;103283;1297;26813;-84
2022/10/30 02:22:07;;;;;;;32.00;29.20;;;;;;;10.57;100.00;98381.46;103486;1313;22883;-84
2022/10/30 02:24:35;;;;;;;29.70;26.90;;;;;;;10.54;100.00;98380.15;103464;1296;22586;-84
2022/10/30 02:27:03;;;;;;;30.40;27.50;;;;;;;10.53;100.00;98380.33;103455;1291;22490;-84
2022/10/30 02:29:31;;;;;;;27.50;24.70;;;;;;;10.50;100.00;98380.69;103774;1308;22506;-85
2022/10/30 02:31:59;;;;;;;27.40;24.80;;;;;;;10.47;100.00;98384.65;103614;1310;22510;-84
2022/10/30 02:34:27;;;;;;;26.90;24.30;;;;;;;10.44;100.00;98385.76;103532;1308;25307;-84
2022/10/30 02:36:57;;;;;;;27.30;24.90;;;;;;;10.44;100.00;98388.82;103445;1294;22467;-84
2022/10/30 02:39:25;;;;;;;29.40;26.50;;;;;;;10.40;100.00;98389.30;103911;1309;22474;-85
2022/10/30 02:41:53;;;;;;;28.40;25.70;;;;;;;10.36;100.00;98386.81;103527;1310;22948;-83
2022/10/30 02:44:21;;;;;;;27.40;25.10;;;;;;;10.35;100.00;98380.73;103390;1313;22487;-83
2022/10/30 02:46:49;;;;;;;28.80;26.00;;;;;;;10.35;100.00;98383.39;103400;1310;25549;-83
2022/10/30 02:49:17;;;;;;;27.90;25.40;;;;;;;10.34;100.00;98384.61;103393;1310;25258;-83
2022/10/30 02:51:45;;;;;;;26.80;24.30;;;;;;;10.34;100.00;98376.11;103430;1310;22474;-84
2022/10/30 02:54:13;;;;;;;27.10;24.50;;;;;;;10.34;100.00;98370.39;103430;1310;26227;-83
2022/10/30 02:56:41;;;;;;;27.20;24.50;;;;;;;10.36;100.00;98366.60;103360;1310;25273;-83
2022/10/30 02:59:09;;;;;;;27.10;24.60;;;;;;;10.39;100.00;98364.05;103527;1310;22511;-82
2022/10/30 03:01:37;;;;;;;28.00;24.70;;;;;;;10.39;100.00;98369.48;103305;1310;22610;-83
2022/10/30 03:04:05;;;;;;;28.90;26.40;;;;;;;10.39;100.00;98372.55;103369;1310;24275;-84
2022/10/30 03:06:34;;;;;;;25.90;23.50;;;;;;;10.37;100.00;98371.34;103466;1289;25197;-84
2022/10/30 03:09:02;;;;;;;27.10;24.70;;;;;;;10.35;100.00;98372.38;103450;1310;24311;-82
2022/10/30 03:11:33;;;;;;;27.50;24.80;;;;;;;10.35;100.00;98370.45;103471;1310;24342;-83
2022/10/30 03:14:01;;;;;;;27.00;24.50;;;;;;;10.36;100.00;98367.64;103361;1306;23109;-85
2022/10/30 03:16:29;;;;;;;26.90;24.40;;;;;;;10.35;100.00;98363.55;103445;1310;22469;-85
2022/10/30 03:18:57;;;;;;;29.50;26.60;;;;;;;10.34;100.00;98364.09;103366;1310;22499;-83
2022/10/30 03:21:27;;;;;;;29.00;25.20;;;;;;;10.33;100.00;98366.90;103443;1310;24304;-83
2022/10/30 03:23:55;;;;;;;28.60;26.00;;;;;;;10.31;100.00;98365.09;103545;1291;25203;-83
2022/10/30 03:26:23;;;;;;;30.00;27.30;;;;;;;10.28;100.00;98364.38;103466;1310;22475;-83
2022/10/30 03:28:54;;;;;;;29.10;26.20;;;;;;;10.26;100.00;98372.35;103462;1310;24244;-84
2022/10/30 03:31:22;;;;;;;29.40;26.70;;;;;;;10.22;100.00;98371.34;103447;1301;24221;-83
2022/10/30 03:34:07;;;;;;;29.20;26.70;;;;;;;10.20;100.00;98369.01;103440;1310;24237;-83
2022/10/30 03:36:35;;;;;;;29.10;26.40;;;;;;;10.18;100.00;98359.15;103424;1310;22612;-83
2022/10/30 03:39:04;;;;;;;27.30;24.90;;;;;;;10.17;100.00;98360.57;103492;1303;22511;-85
2022/10/30 03:41:32;;;;;;;29.30;26.50;;;;;;;10.14;100.00;98367.80;103406;1310;25302;-85
2022/10/30 03:44:00;;;;;;;30.00;27.40;;;;;;;10.11;100.00;98373.83;103493;1299;23281;-84
2022/10/30 03:46:30;;;;;;;29.40;26.40;;;;;;;10.08;100.00;98369.91;103398;1310;22644;-86
2022/10/30 03:49:09;;;;;;;28.70;26.00;;;;;;;10.09;100.00;98366.09;103188;1299;23225;-82
2022/10/30 03:51:37;;;;;;;28.80;26.00;;;;;;;10.07;100.00;98366.80;103173;1310;25302;-83
2022/10/30 03:54:06;;;;;;;28.50;26.00;;;;;;;10.08;100.00;98368.79;103174;1301;22475;-83
2022/10/30 03:56:34;;;;;;;27.90;25.20;;;;;;;10.10;100.00;98368.77;103459;1310;22475;-82
2022/10/30 03:59:03;;;;;;;30.30;27.30;;;;;;;10.11;100.00;98366.51;103181;1304;22505;-83
2022/10/30 04:01:35;;;;;;;26.80;24.40;;;;;;;10.12;100.00;98376.04;103226;1288;22465;-85
2022/10/30 04:04:03;;;;;;;30.70;27.80;;;;;;;10.10;100.00;98373.23;103282;1310;22460;-85
2022/10/30 04:06:31;;;;;;;32.70;29.50;;;;;;;10.10;100.00;98373.45;104740;1310;22486;-85
2022/10/30 04:08:59;;;;;;;34.70;31.70;;;;;;;10.08;100.00;98367.60;106471;1310;22184;-83
2022/10/30 04:11:35;;;;;;;35.60;32.60;;;;;;;10.09;100.00;98364.79;106212;1300;25116;-81
2022/10/30 04:14:03;;;;;;;38.70;35.00;;;;;;;10.10;100.00;98364.90;105309;1310;22475;-85
2022/10/30 04:16:32;;;;;;;41.20;37.30;;;;;;;10.08;100.00;98361.46;103695;1310;22663;-85
2022/10/30 04:19:00;;;;;;;38.10;34.70;;;;;;;10.08;100.00;98359.95;103456;1291;25389;-86
2022/10/30 04:21:28;;;;;;;39.40;35.90;;;;;;;10.09;100.00;98362.05;103700;1292;22467;-85
2022/10/30 04:24:00;;;;;;;41.70;38.00;;;;;;;10.06;100.00;98362.40;103617;1310;22467;-85
2022/10/30 04:26:29;;;;;;;45.50;41.10;;;;;;;10.05;100.00;98355.79;103332;1310;22498;-84
2022/10/30 04:28:57;;;;;;;43.30;36.40;;;;;;;10.04;100.00;98355.10;103337;1310;24241;-83
2022/10/30 04:31:25;;;;;;;47.40;36.70;;;;;;;9.99;100.00;98351.96;103284;1310;22490;-83
2022/10/30 04:33:53;;;;;;;44.00;31.90;;;;;;;9.97;100.00;98353.98;103244;1310;22572;-84
2022/10/30 04:36:28;;;;;;;39.50;28.60;;;;;;;9.92;100.00;98355.84;103422;1286;25423;-85
2022/10/30 04:38:56;;;;;;;51.70;32.30;;;;;;;9.90;100.00;98359.63;103412;1310;22496;-85
2022/10/30 04:41:26;;;;;;;43.30;32.30;;;;;;;9.86;100.00;98360.11;103380;1291;25247;-85
2022/10/30 04:44:00;;;;;;;;;;;;;;;9.82;100.00;98364.92;103430;1295;22590;-83
2022/10/30 04:46:30;;;;;;;64.40;31.30;;;;;;;9.80;100.00;98370.91;103416;1310;25329;-84
2022/10/30 04:49:05;;;;;;;50.20;32.60;;;;;;;9.78;100.00;98371.41;103425;1296;22613;-83
2022/10/30 04:51:33;;;;;;;37.30;30.50;;;;;;;9.77;100.00;98369.98;103464;1291;22476;-84
2022/10/30 04:54:01;;;;;;;67.80;31.80;;;;;;;9.76;100.00;98371.92;103148;1288;22594;-83
2022/10/30 04:56:31;;;;;;;31.50;26.50;;;;;;;9.75;100.00;98370.14;103461;1309;26109;-82
2022/10/30 04:59:00;;;;;;;71.80;34.60;;;;;;;9.76;100.00;98374.02;103453;1289;22479;-83
2022/10/30 05:01:28;;;;;;;42.50;34.10;;;;;;;9.77;100.00;98374.17;103438;1282;24253;-84
2022/10/30 05:03:57;;;;;;;45.90;34.40;;;;;;;9.77;100.00;98370.98;103396;1294;22750;-84
2022/10/30 05:06:29;;;;;;;48.60;34.60;;;;;;;9.79;100.00;98369.31;103537;1285;23651;-85
2022/10/30 05:08:57;;;;;;;48.30;32.20;;;;;;;9.81;100.00;98372.58;103392;1288;22474;-86
2022/10/30 05:11:32;;;;;;;42.30;33.80;;;;;;;9.81;100.00;98372.62;103475;1284;22478;-85
2022/10/30 05:14:00;;;;;;;49.30;33.00;;;;;;;9.82;100.00;98373.33;103427;1310;22478;-85
2022/10/30 05:16:28;;;;;;;54.10;34.90;;;;;;;9.81;100.00;98375.53;103445;1309;24255;-85
2022/10/30 05:18:58;;;;;;;60.90;34.10;;;;;;;9.82;100.00;98374.19;103499;1310;24315;-87
2022/10/30 05:21:25;;;;;;;54.70;34.00;;;;;;;9.85;100.00;98370.33;103537;1288;25299;-84
2022/10/30 05:23:53;;;;;;;43.70;28.70;;;;;;;9.86;100.00;98374.36;103490;1310;25322;-86
2022/10/30 05:26:22;;;;;;;51.80;33.30;;;;;;;9.89;100.00;98373.76;103514;1310;22457;-86
2022/10/30 05:28:51;;;;;;;63.10;37.20;;;;;;;9.91;100.00;98377.89;103500;1288;25215;-86
2022/10/30 05:31:19;;;;;;;80.70;35.70;;;;;;;9.93;100.00;98375.70;103454;1295;24236;-87
2022/10/30 05:34:05;;;;;;;46.50;38.80;;;;;;;9.95;100.00;98371.23;103491;1285;25340;-84
2022/10/30 05:36:36;;;;;;;43.40;31.50;;;;;;;9.99;100.00;98368.65;103472;1298;23139;-86
2022/10/30 05:39:05;;;;;;;48.00;35.50;;;;;;;10.01;100.00;98365.02;103607;1297;22498;-86
2022/10/30 05:41:39;;;;;;;;;;;;;;;9.99;100.00;98363.98;103549;1286;23862;-84
2022/10/30 05:44:08;;;;;;;42.50;29.50;;;;;;;9.97;100.00;98364.52;103564;1302;22495;-85
2022/10/30 05:46:38;;;;;;;70.90;34.20;;;;;;;9.94;100.00;98368.64;103626;1310;22803;-85
2022/10/30 05:49:14;;;;;;;46.90;30.80;;;;;;;9.94;100.00;98372.73;103512;1311;22531;-86
2022/10/30 05:51:42;;;;;;;46.40;32.40;;;;;;;9.94;100.00;98372.36;103529;1288;25267;-83
2022/10/30 05:54:10;;;;;;;59.70;34.10;;;;;;;9.99;100.00;98373.17;103422;1298;22564;-84
2022/10/30 05:56:47;;;;;;;32.70;28.20;;;;;;;9.99;100.00;98379.53;103618;1295;22465;-83
2022/10/30 05:59:15;;;;;;;46.30;34.40;;;;;;;10.01;100.00;98379.23;103592;1309;25268;-84
2022/10/30 06:01:43;;;;;;;45.80;36.70;;;;;;;10.01;100.00;98383.17;103432;1310;22478;-83
2022/10/30 06:04:17;;;;;;;41.90;37.40;;;;;;;10.02;100.00;98382.41;103493;1310;21901;-83
2022/10/30 06:06:45;;;;;;;51.30;35.80;;;;;;;10.05;100.00;98385.08;103008;1310;24279;-84
2022/10/30 06:09:13;;;;;;;43.40;37.20;;;;;;;10.08;100.00;98382.84;103428;1289;25314;-84
2022/10/30 06:12:00;;;;;;;45.00;35.70;;;;;;;10.10;100.00;98382.84;103604;1301;22472;-85
2022/10/30 06:14:39;;;;;;;41.90;34.70;;;;;;;10.12;100.00;98384.10;103581;1310;22594;-84
2022/10/30 06:17:07;;;;;;;39.40;35.50;;;;;;;10.13;100.00;98384.42;103444;1302;25206;-84
2022/10/30 06:19:59;;;;;;;46.40;31.90;;;;;;;10.16;100.00;98385.09;103448;1288;22494;-83
2022/10/30 06:22:58;;;;;;;39.80;28.70;;;;;;;10.17;100.00;98383.84;103434;1311;22472;-86
2022/10/30 06:25:34;;;;;;;35.20;31.40;;;;;;;10.18;100.00;98378.66;103468;1310;24240;-85
2022/10/30 06:28:21;;;;;;;35.90;31.90;;;;;;;10.17;100.00;98378.88;103636;1309;24268;-85
2022/10/30 06:30:53;;;;;;;43.10;33.70;;;;;;;10.24;100.00;98379.04;103488;1298;25212;-85
2022/10/30 06:33:21;;;;;;;36.70;32.90;;;;;;;10.23;100.00;98375.53;103455;1310;22459;-85
2022/10/30 06:35:51;;;;;;;41.50;37.40;;;;;;;10.23;100.00;98371.34;103582;1302;22553;-85
2022/10/30 06:38:19;;;;;;;42.30;35.30;;;;;;;10.26;100.00;98374.92;103272;1301;25279;-84
2022/10/30 06:40:49;;;;;;;42.70;38.30;;;;;;;10.30;100.00;98369.09;103170;1310;25202;-84
2022/10/30 06:43:23;;;;;;;;;;;;;;;10.34;100.00;98373.30;103492;1310;23208;-85
2022/10/30 06:45:57;;;;;;;42.00;38.00;;;;;;;10.37;100.00;98376.66;103302;1311;25338;-85
2022/10/30 06:48:25;;;;;;;38.50;34.90;;;;;;;10.39;100.00;98379.17;103530;1310;22855;-85
2022/10/30 06:50:56;;;;;;;42.30;38.10;;;;;;;10.42;100.00;98382.05;103436;1297;22480;-84
2022/10/30 06:53:26;;;;;;;42.00;37.90;;;;;;;10.41;100.00;98382.06;103564;1288;25253;-85
2022/10/30 06:56:01;;;;;;;38.40;34.50;;;;;;;10.41;100.00;98381.41;103535;1297;25195;-84
2022/10/30 06:58:48;;;;;;;36.90;33.20;;;;;;;10.44;100.00;98378.70;103304;1310;22493;-83
2022/10/30 07:01:44;;;;;;;36.60;33.00;;;;;;;10.49;100.00;98379.14;103357;1310;22473;-84
2022/10/30 07:04:17;;;;;;;36.90;33.20;;;;;;;10.51;100.00;98381.85;103414;1295;22477;-84
2022/10/30 07:06:45;;;;;;;40.20;35.90;;;;;;;10.55;100.00;98387.80;103439;1310;26102;-81
2022/10/30 07:09:13;;;;;;;34.90;31.70;;;;;;;10.59;100.00;98386.82;103500;1310;24257;-83
2022/10/30 07:11:44;;;;;;;37.00;33.10;;;;;;;10.67;100.00;98383.04;104640;1311;22486;-83
2022/10/30 07:14:41;;;;;;;34.10;30.80;;;;;;;10.73;100.00;98381.98;105349;1310;22482;-82
2022/10/30 07:17:35;;;;;;;33.50;30.40;;;;;;;10.77;100.00;98389.48;103457;1284;24240;-81
2022/10/30 07:20:10;;;;;;;37.70;34.00;;;;;;;10.86;100.00;98383.39;103462;1288;22470;-84
2022/10/30 07:22:38;;;;;;;37.10;33.50;;;;;;;10.91;100.00;98388.02;103516;1310;22883;-81
2022/10/30 07:25:08;;;;;;;35.50;32.10;;;;;;;11.01;100.00;98386.02;103557;1310;24225;-82
2022/10/30 07:27:55;;;;;;;39.40;35.60;;;;;;;11.08;100.00;98389.48;103529;1310;22654;-83
2022/10/30 07:30:33;;;;;;;36.60;33.00;;;;;;;11.14;100.00;98386.98;103486;1310;22498;-84
2022/10/30 07:33:27;;;;;;;35.60;32.30;;;;;;;11.27;100.00;98388.20;102922;1310;22498;-84
2022/10/30 07:36:00;;;;;;;32.90;29.90;;;;;;;11.39;100.00;98387.55;103285;1291;22483;-85
2022/10/30 07:38:51;;;;;;;33.90;30.50;;;;;;;11.52;100.00;98390.77;103309;1310;23921;-85
2022/10/30 07:41:38;;;;;;;34.40;31.30;;;;;;;11.64;100.00;98392.52;103346;1303;23267;-82
2022/10/30 07:44:35;;;;;;;31.60;28.60;;;;;;;11.71;100.00;98389.95;103408;1310;25248;-83
2022/10/30 07:47:26;;;;;;;34.20;30.60;;;;;;;11.79;100.00;98390.50;103596;1288;25249;-83
2022/10/30 07:50:02;;;;;;;33.90;30.50;;;;;;;11.90;100.00;98391.71;103392;1288;22481;-83
2022/10/30 07:52:33;;;;;;;32.60;29.40;;;;;;;11.99;100.00;98382.81;103551;1308;22472;-82
2022/10/30 07:55:01;;;;;;;30.40;27.10;;;;;;;12.08;100.00;98387.21;103435;1293;25257;-85
2022/10/30 07:57:47;;;;;;;35.70;31.90;;;;;;;12.14;100.00;98387.54;103623;1310;22694;-87
2022/10/30 08:00:21;;;;;;;34.00;29.60;;;;;;;12.22;100.00;98383.18;103564;1310;24807;-81
2022/10/30 08:02:56;;;;;;;34.30;30.70;;;;;;;12.31;100.00;98383.45;103573;1310;23258;-82
2022/10/30 08:05:41;;;;;;;31.80;28.70;;;;;;;12.40;100.00;98383.56;103671;1288;26490;-84
2022/10/30 08:08:13;;;;;;;33.50;30.30;;;;;;;12.50;100.00;98382.18;103455;1310;25312;-82
2022/10/30 08:10:40;;;;;;;34.00;30.60;;;;;;;12.60;100.00;98379.40;103306;1307;24253;-83
2022/10/30 08:13:08;;;;;;;34.60;31.00;;;;;;;12.71;100.00;98374.09;103449;1309;22482;-80
2022/10/30 08:15:38;;;;;;;35.10;31.70;;;;;;;12.82;100.00;98372.27;103521;1310;22489;-82
2022/10/30 08:18:06;;;;;;;34.70;31.30;;;;;;;12.92;100.00;98372.59;103528;1310;22550;-82
2022/10/30 08:20:35;;;;;;;35.50;32.00;;;;;;;13.04;100.00;98365.59;103551;1300;23521;-81
2022/10/30 08:23:07;;;;;;;35.30;31.50;;;;;;;13.15;100.00;98371.02;103450;1290;22481;-82
2022/10/30 08:25:35;;;;;;;28.30;25.20;;;;;;;13.29;100.00;98367.73;103527;1297;22612;-81
2022/10/30 08:28:06;;;;;;;26.90;23.90;;;;;;;13.42;100.00;98367.83;103571;1310;25360;-81
2022/10/30 08:30:37;;;;;;;27.30;24.50;;;;;;;13.56;100.00;98373.33;103491;1310;22488;-81
2022/10/30 08:33:12;;;;;;;30.60;25.20;;;;;;;13.66;100.00;98372.29;103600;1297;22512;-82
2022/10/30 08:36:18;;;;;;;26.50;24.00;;;;;;;13.74;100.00;98371.67;103482;1310;23837;-83
2022/10/30 08:38:47;;;;;;;28.70;23.90;;;;;;;13.82;100.00;98372.41;103659;1310;24251;-84
2022/10/30 08:41:23;;;;;;;28.20;25.10;;;;;;;13.95;100.00;98375.06;103628;1305;22477;-83
2022/10/30 08:43:52;;;;;;;30.10;27.00;;;;;;;14.05;100.00;98370.35;103544;1304;22862;-81
2022/10/30 08:46:19;;;;;;;29.30;26.20;;;;;;;14.14;100.00;98360.43;103657;1309;22471;-81
2022/10/30 08:48:47;;;;;;;29.40;26.20;;;;;;;14.26;100.00;98354.42;103394;1310;22586;-82
2022/10/30 08:51:15;;;;;;;29.90;26.50;;;;;;;14.39;100.00;98350.31;103675;1310;22573;-80
2022/10/30 08:53:48;;;;;;;28.70;25.70;;;;;;;14.49;100.00;98340.16;103521;1310;23105;-82
2022/10/30 08:56:18;;;;;;;24.70;21.70;;;;;;;14.63;100.00;98338.66;103541;1303;23259;-82
2022/10/30 08:58:55;;;;;;;22.10;19.70;;;;;;;14.78;100.00;98338.06;103497;1297;23336;-83
2022/10/30 09:01:23;;;;;;;21.80;19.50;;;;;;;14.89;100.00;98343.14;103591;1310;22742;-82
2022/10/30 09:04:11;;;;;;;20.30;17.90;;;;;;;14.99;99.57;98339.96;103661;1309;22471;-85
2022/10/30 09:07:00;;;;;;;21.00;17.20;;;;;;;15.09;100.00;98337.10;103601;1309;25333;-83
2022/10/30 09:09:28;;;;;;;20.20;16.80;;;;;;;15.20;100.00;98336.67;103639;1287;25358;-84
2022/10/30 09:11:59;;;;;;;27.30;20.90;;;;;;;15.32;99.71;98336.61;103485;1310;22584;-83
2022/10/30 09:14:27;;;;;;;22.80;20.20;;;;;;;15.39;98.88;98337.32;103564;1310;22481;-81
2022/10/30 09:16:56;;;;;;;25.70;18.80;;;;;;;15.49;99.52;98337.73;103540;1306;22747;-81
2022/10/30 09:19:23;;;;;;;21.00;15.80;;;;;;;15.59;97.66;98339.69;103423;1310;25223;-83
2022/10/30 09:21:51;;;;;;;19.20;15.50;;;;;;;15.72;97.88;98339.23;103506;1289;22489;-83
2022/10/30 09:24:21;;;;;;;20.10;15.30;;;;;;;15.78;97.89;98336.46;103534;1288;23191;-81
2022/10/30 09:26:49;;;;;;;19.80;16.60;;;;;;;15.83;97.40;98332.04;103352;1288;22480;-82
2022/10/30 09:29:21;;;;;;;25.40;17.00;;;;;;;15.86;94.55;98331.40;103636;1310;24265;-84
2022/10/30 09:32:09;;;;;;;22.60;17.80;;;;;;;15.89;94.92;98329.13;103446;1290;25243;-83
2022/10/30 09:34:55;;;;;;;19.90;16.40;;;;;;;15.98;93.38;98330.17;103482;1309;24318;-81
2022/10/30 09:37:36;;;;;;;20.00;13.50;;;;;;;16.07;92.40;98327.55;103422;1309;22484;-82
2022/10/30 09:40:07;;;;;;;16.90;15.10;;;;;;;16.19;91.91;98331.21;103365;1306;25215;-82
2022/10/30 09:42:45;;;;;;;19.90;13.20;;;;;;;16.27;91.03;98328.37;103619;1309;24243;-80
2022/10/30 09:45:37;;;;;;;18.20;12.90;;;;;;;16.33;89.20;98330.02;103657;1287;25245;-82
2022/10/30 09:48:18;;;;;;;21.90;13.30;;;;;;;16.41;89.26;98330.94;103511;1306;22685;-82
2022/10/30 09:51:23;;;;;;;17.50;12.90;;;;;;;16.51;89.61;98328.63;103648;1301;23098;-83
2022/10/30 09:54:07;;;;;;;19.90;13.50;;;;;;;16.66;89.92;98329.23;103725;1309;22468;-83
2022/10/30 09:56:46;;;;;;;21.10;12.60;;;;;;;16.79;88.31;98331.66;104991;1289;25381;-82
2022/10/30 09:59:27;;;;;;;15.60;12.30;;;;;;;16.88;88.20;98332.31;105605;1288;22491;-80
2022/10/30 10:02:12;;;;;;;16.20;12.20;;;;;;;17.00;85.73;98332.65;105052;1310;22539;-81
2022/10/30 10:04:51;;;;;;;17.60;11.50;;;;;;;17.11;85.89;98334.90;103645;1284;22480;-83
2022/10/30 10:07:44;;;;;;;17.20;10.80;;;;;;;17.21;83.41;98333.73;103643;1301;22477;-83
2022/10/30 10:10:39;;;;;;;15.60;11.00;;;;;;;17.36;84.19;98331.89;103540;1310;23675;-83
2022/10/30 10:13:23;;;;;;;15.20;10.10;;;;;;;17.46;82.24;98334.53;103587;1294;25426;-82
2022/10/30 10:16:14;;;;;;;14.40;9.40;;;;;;;17.60;82.57;98328.46;103554;1295;22836;-81
2022/10/30 10:18:45;;;;;;;16.60;9.20;;;;;;;17.77;81.58;98331.26;103442;1310;25601;-81
2022/10/30 10:21:25;;;;;;;18.40;9.30;;;;;;;17.88;81.59;98328.73;103592;1310;22640;-81
2022/10/30 10:23:55;;;;;;;21.30;10.80;;;;;;;18.01;80.78;98325.33;103610;1285;24532;-82
2022/10/30 10:26:36;;;;;;;16.60;10.20;;;;;;;18.09;78.65;98324.85;103383;1304;22952;-81
2022/10/30 10:29:13;;;;;;;18.60;9.80;;;;;;;18.21;79.00;98324.63;103596;1285;23397;-81
2022/10/30 10:31:41;;;;;;;20.50;10.40;;;;;;;18.35;78.74;98323.08;103599;1309;22481;-85
2022/10/30 10:34:26;;;;;;;17.90;9.30;;;;;;;18.45;76.98;98323.86;103631;1282;22485;-86
2022/10/30 10:36:54;;;;;;;16.20;10.00;;;;;;;18.47;74.51;98326.95;103630;1309;25347;-84
2022/10/30 10:39:44;;;;;;;17.90;10.60;;;;;;;18.49;75.79;98321.88;103584;1304;22751;-85
2022/10/30 10:42:30;;;;;;;21.60;9.70;;;;;;;18.57;75.62;98322.52;103388;1310;22463;-86
2022/10/30 10:45:24;;;;;;;18.50;8.60;;;;;;;18.70;74.92;98313.59;103606;1310;25356;-86
2022/10/30 10:48:30;;;;;;;22.60;9.80;;;;;;;18.80;72.99;98318.38;103451;1310;22491;-87
2022/10/30 10:51:25;;;;;;;16.00;9.20;;;;;;;18.93;72.34;98316.65;103517;1310;24223;-88
2022/10/30 10:54:07;;;;;;;13.80;8.40;;;;;;;19.02;70.36;98321.54;103417;1288;22476;-88
2022/10/30 10:56:44;;;;;;;16.70;8.10;;;;;;;19.10;71.19;98319.13;103508;1309;22738;-89
2022/10/30 10:59:18;;;;;;;13.00;7.80;;;;;;;19.30;69.20;98313.69;103673;1309;24265;-84
2022/10/30 11:01:54;;;;;;;;;;;;;;;19.56;68.90;98313.91;103942;1310;22414;-87
2022/10/30 11:04:51;;;;;;;13.20;8.20;;;;;;;20.01;68.65;98304.68;104165;1289;22463;-88
2022/10/30 11:07:48;;;;;;;14.00;8.40;;;;;;;20.41;68.16;98302.31;103853;1278;25299;-90
2022/10/30 11:10:19;;;;;;;16.20;8.40;;;;;;;20.62;66.43;98297.61;103472;1309;24221;-89
2022/10/30 11:12:47;;;;;;;14.50;8.60;;;;;;;20.69;66.11;98293.45;103546;1310;22470;-91
2022/10/30 11:15:24;;;;;;;13.70;8.10;;;;;;;20.57;65.10;98298.27;104233;1297;22528;-92
2022/10/30 11:18:02;;;;;;;16.60;8.20;;;;;;;20.45;66.76;98295.14;103693;1304;22478;-86
2022/10/30 11:20:41;;;;;;;16.30;8.70;;;;;;;20.37;66.79;98293.14;103556;1310;24259;-92
2022/10/30 11:23:33;;;;;;;16.20;7.60;;;;;;;20.27;65.91;98299.95;104026;1309;22497;-89
2022/10/30 11:26:01;;;;;;;15.70;7.90;;;;;;;20.13;65.80;98298.88;104277;1297;22537;-90
2022/10/30 11:28:35;;;;;;;14.50;7.20;;;;;;;20.06;67.25;98300.09;104954;1310;127515;-87
2022/10/30 11:31:26;;;;;;;16.90;7.50;;;;;;;20.07;66.26;98306.45;104946;1288;25189;-91
2022/10/30 11:33:54;;;;;;;14.00;7.90;;;;;;;20.09;67.36;98304.25;104190;1310;24222;-92
2022/10/30 11:36:25;;;;;;;15.80;8.30;;;;;;;20.15;66.91;98308.64;104981;1288;22511;-92
2022/10/30 11:39:08;;;;;;;16.40;8.90;;;;;;;20.12;66.77;98308.95;104073;1310;22486;-91
2022/10/30 11:41:37;;;;;;;16.10;8.50;;;;;;;20.06;66.45;98314.80;103687;1310;22495;-88